CYBC

Baie Comeau  Airport

Baie-Comeau, Quebec, Canada

CYBC 241400Z AUTO 29010G18KT 9SM CLR M06/M14 A2983 RMK SLP105

Observed Flight Rules
Nov-24 @ 14:00 UTC (60 minutes ago)
 
Visual Flight Rules
Wind Visibility Clouds
290° at 10 knots
 Gusting to 18 knots
9 miles
  • Clear skies
Temperatures Readings
Current -6°C / 21°F
Dewpoint -14°C / 7°F
Humidity 54%
Altimeter 29.83" Hg
Pressure 1010.5 hPa
Elevation 22
Observed Flight Rules
Nov-24 @ 14:00 UTC
(60 minutes ago)
 
VFR
Wind Visibility
290° at 10 knots
 Gusting to 18 knots
9 miles
Clouds
  • Clear skies
Temperature Dewpoint
-6°C / 21°F -14°C / 7°F
Humidity Altimeter Pressure
54% 29.83" Hg 1010.5 hPa